Time;durP1;ratioP1;P1;durP2;ratioP2;P2;SDS_P1;SDS_P2;PMS_P1;PMS_P2;Temp;Humidity;BMP_temperature;BMP_pressure;BME280_temperature;BME280_humidity;BME280_pressure;Samples;Min_cycle;Max_cycle;Signal;HPM_P1;HPM_P2
2021/06/08 00:01:09;;;;;;;31.33;11.07;;;;;;;11.85;66.76;99136.41;2192998;81;21069;-80
2021/06/08 00:04:10;;;;;;;24.12;11.33;;;;;;;11.78;66.92;99140.27;2192977;81;20942;-79
2021/06/08 00:07:11;;;;;;;18.57;11.35;;;;;;;11.74;66.89;99137.13;2192909;81;20984;-80
2021/06/08 00:10:12;;;;;;;18.70;11.20;;;;;;;11.72;67.04;99133.63;2192745;81;20963;-80
2021/06/08 00:13:12;;;;;;;19.83;11.00;;;;;;;11.66;67.07;99132.67;2192787;80;20994;-79
2021/06/08 00:16:13;;;;;;;20.23;11.33;;;;;;;11.60;67.19;99135.20;2192995;81;20980;-80
2021/06/08 00:19:14;;;;;;;18.87;10.80;;;;;;;11.52;67.21;99136.85;2193036;81;20908;-80
2021/06/08 00:22:16;;;;;;;14.77;10.07;;;;;;;11.49;67.42;99136.38;2193072;81;20963;-81
2021/06/08 00:25:16;;;;;;;14.40;10.80;;;;;;;11.46;67.78;99132.42;2193298;81;20888;-80
2021/06/08 00:28:18;;;;;;;14.23;10.13;;;;;;;11.43;67.86;99129.34;2193204;81;21332;-81
2021/06/08 00:31:18;;;;;;;16.87;9.47;;;;;;;11.35;67.72;99121.83;2192997;81;20966;-80
2021/06/08 00:34:19;;;;;;;12.30;10.27;;;;;;;11.30;67.98;99131.77;2192534;81;20951;-80
2021/06/08 00:37:20;;;;;;;13.40;9.70;;;;;;;11.29;68.21;99124.79;2193173;81;20983;-80
2021/06/08 00:40:21;;;;;;;41.60;12.03;;;;;;;11.28;68.21;99118.69;2192893;81;20955;-79
2021/06/08 00:43:22;;;;;;;15.90;9.53;;;;;;;11.27;68.33;99122.16;2192333;81;21014;-80
2021/06/08 00:46:23;;;;;;;15.27;10.07;;;;;;;11.22;68.17;99122.49;2193174;81;20970;-81
2021/06/08 00:49:24;;;;;;;16.43;11.10;;;;;;;11.21;68.39;99131.62;2193090;81;20955;-80
2021/06/08 00:52:25;;;;;;;19.73;10.50;;;;;;;11.22;68.81;99131.64;2192809;81;20896;-80
2021/06/08 00:55:26;;;;;;;12.07;10.43;;;;;;;11.21;68.64;99129.88;2192756;81;20895;-79
2021/06/08 00:58:27;;;;;;;14.33;10.57;;;;;;;11.15;68.49;99131.98;2192744;81;20987;-81
2021/06/08 01:01:28;;;;;;;15.27;10.30;;;;;;;11.08;68.50;99128.83;2193017;81;20987;-79
2021/06/08 01:04:28;;;;;;;13.93;10.47;;;;;;;11.05;68.72;99123.99;2193304;81;20956;-79
2021/06/08 01:07:32;;;;;;;14.07;10.37;;;;;;;11.01;68.73;99123.50;2193055;81;20912;-79
2021/06/08 01:10:32;;;;;;;24.43;11.63;;;;;;;10.97;68.79;99124.31;2192881;81;21007;-80
2021/06/08 01:13:33;;;;;;;13.43;10.33;;;;;;;10.95;68.98;99125.59;2192793;80;21026;-80
2021/06/08 01:16:34;;;;;;;11.87;9.97;;;;;;;10.94;68.84;99132.09;2193090;81;20899;-80
2021/06/08 01:19:37;;;;;;;12.97;10.80;;;;;;;10.90;68.75;99124.64;2193063;81;20923;-80
2021/06/08 01:22:37;;;;;;;15.17;10.70;;;;;;;10.90;68.76;99127.69;2193096;81;21026;-80
2021/06/08 01:25:38;;;;;;;13.97;10.83;;;;;;;10.89;68.85;99124.20;2193112;81;21352;-80
2021/06/08 01:28:39;;;;;;;19.47;10.63;;;;;;;10.82;69.07;99120.61;2192928;81;20959;-79
2021/06/08 01:31:40;;;;;;;14.80;11.10;;;;;;;10.78;68.94;99126.64;2193222;81;20935;-79
2021/06/08 01:34:42;;;;;;;15.73;10.00;;;;;;;10.75;69.20;99121.80;2192761;81;20908;-80
2021/06/08 01:37:43;;;;;;;30.40;10.93;;;;;;;10.72;69.36;99118.72;2193289;81;20992;-79
2021/06/08 01:40:44;;;;;;;13.53;9.77;;;;;;;10.69;69.43;99116.48;2193294;81;20920;-80
2021/06/08 01:43:45;;;;;;;15.07;9.70;;;;;;;10.61;69.21;99111.14;2183314;81;21023;-80
2021/06/08 01:46:46;;;;;;;14.27;10.37;;;;;;;10.57;69.43;99118.48;2170770;81;20936;-79
2021/06/08 01:49:47;;;;;;;16.67;10.60;;;;;;;10.52;69.41;99117.52;2170621;82;20940;-80
2021/06/08 01:52:48;;;;;;;30.30;11.87;;;;;;;10.47;69.45;99123.97;2170485;82;20980;-79
2021/06/08 01:55:49;;;;;;;24.43;11.63;;;;;;;10.45;69.72;99123.50;2170539;82;20964;-80
2021/06/08 01:58:49;;;;;;;15.67;10.27;;;;;;;10.45;69.63;99122.19;2170640;82;20968;-80
2021/06/08 02:01:50;;;;;;;13.63;10.00;;;;;;;10.45;69.82;99123.50;2170627;82;20964;-80
2021/06/08 02:04:52;;;;;;;19.60;11.47;;;;;;;10.45;69.78;99124.80;2170865;82;21015;-80
2021/06/08 02:07:53;;;;;;;41.17;11.43;;;;;;;11.89;75.95;99115.53;2171022;82;21185;-80
2021/06/08 02:10:54;;;;;;;15.93;10.33;;;;;;;13.94;72.04;99119.23;2171163;82;20972;-81
2021/06/08 02:13:55;;;;;;;20.47;10.80;;;;;;;13.81;64.73;99111.73;2170619;81;20991;-81
2021/06/08 02:16:56;;;;;;;16.10;10.90;;;;;;;12.94;63.99;99118.23;2170951;82;21008;-79
2021/06/08 02:19:58;;;;;;;15.37;10.80;;;;;;;12.27;64.32;99122.92;2170512;82;20920;-81
2021/06/08 02:23:00;;;;;;;13.33;10.40;;;;;;;11.79;65.03;99120.22;2170597;82;20925;-81
2021/06/08 02:26:00;;;;;;;17.00;9.97;;;;;;;11.38;65.56;99123.61;2170273;82;20907;-79
2021/06/08 02:29:01;;;;;;;11.73;10.27;;;;;;;11.08;66.35;99128.83;2170075;82;20936;-79
2021/06/08 02:32:02;;;;;;;13.77;11.07;;;;;;;10.95;67.02;99126.02;2170371;82;20932;-80
2021/06/08 02:35:04;;;;;;;12.13;10.13;;;;;;;10.84;67.33;99127.16;2170557;82;20995;-80
2021/06/08 02:38:04;;;;;;;13.87;10.17;;;;;;;10.77;67.76;99122.70;2170590;82;20936;-80
2021/06/08 02:41:05;;;;;;;17.00;10.47;;;;;;;10.69;67.72;99123.89;2170585;82;21328;-78
2021/06/08 02:44:06;;;;;;;18.53;10.23;;;;;;;10.66;68.22;99127.76;2169617;81;21031;-79
2021/06/08 02:47:07;;;;;;;48.07;13.20;;;;;;;10.63;68.49;99124.22;2170264;82;20893;-82
2021/06/08 02:50:08;;;;;;;16.43;10.60;;;;;;;10.62;68.63;99128.56;2170850;82;20961;-82
2021/06/08 02:53:09;;;;;;;12.73;10.30;;;;;;;10.62;68.77;99127.26;2170552;82;20888;-82
2021/06/08 02:56:10;;;;;;;10.97;9.77;;;;;;;10.66;68.67;99126.88;2169838;82;21015;-81
2021/06/08 02:59:11;;;;;;;15.23;10.23;;;;;;;10.65;68.59;99127.73;2170027;82;20920;-81
2021/06/08 03:02:12;;;;;;;14.37;11.37;;;;;;;10.64;68.64;99133.38;2169894;82;20956;-80
2021/06/08 03:05:13;;;;;;;13.03;10.93;;;;;;;10.66;68.68;99138.63;2169936;82;20988;-81
2021/06/08 03:08:14;;;;;;;139.67;20.03;;;;;;;10.60;68.56;99142.45;2169896;82;20929;-79
2021/06/08 03:11:15;;;;;;;20.00;11.80;;;;;;;10.60;69.06;99140.72;2169998;82;21024;-80
2021/06/08 03:14:16;;;;;;;13.10;11.07;;;;;;;10.66;69.21;99143.42;2170136;82;20992;-81
2021/06/08 03:17:17;;;;;;;14.90;11.13;;;;;;;10.69;69.07;99141.29;2169955;82;20988;-80
2021/06/08 03:20:18;;;;;;;15.10;10.27;;;;;;;10.74;69.00;99147.46;2169750;82;20956;-80
2021/06/08 03:23:20;;;;;;;28.73;21.07;;;;;;;10.80;69.06;99151.48;2169805;82;20972;-79
2021/06/08 03:26:21;;;;;;;17.03;12.67;;;;;;;10.87;69.02;99147.23;2169865;82;21356;-81
2021/06/08 03:29:21;;;;;;;14.87;10.50;;;;;;;10.94;69.01;99150.38;2169722;82;21316;-79
2021/06/08 03:32:22;;;;;;;16.43;10.60;;;;;;;10.96;69.13;99155.20;2169813;82;21276;-79
2021/06/08 03:35:23;;;;;;;11.13;9.63;;;;;;;10.97;69.00;99156.53;2169671;82;20981;-81
2021/06/08 03:38:24;;;;;;;13.00;10.40;;;;;;;11.01;69.04;99157.45;2169482;82;20949;-79
2021/06/08 03:41:26;;;;;;;11.50;10.20;;;;;;;11.09;69.00;99164.55;2169783;82;21320;-79
2021/06/08 03:44:26;;;;;;;13.60;10.30;;;;;;;11.23;69.21;99165.17;2181180;81;21054;-79
2021/06/08 03:47:27;;;;;;;14.93;11.73;;;;;;;11.34;69.19;99163.20;2193535;81;21364;-79
2021/06/08 03:50:28;;;;;;;11.77;10.57;;;;;;;11.52;69.25;99162.99;2193397;81;20896;-78
2021/06/08 03:53:29;;;;;;;15.25;10.80;;;;;;;11.68;68.90;99170.17;2193198;81;20963;-79
2021/06/08 03:56:30;;;;;;;12.53;11.22;;;;;;;11.71;68.96;99163.67;2192962;81;20931;-79
2021/06/08 03:59:32;;;;;;;16.27;11.63;;;;;;;11.85;69.02;99164.75;2192853;81;21035;-80
2021/06/08 04:02:33;;;;;;;12.43;11.33;;;;;;;12.08;69.02;99162.39;2193150;81;20996;-79
2021/06/08 04:05:34;;;;;;;14.35;11.57;;;;;;;12.34;69.05;99165.31;2192814;81;20931;-79
2021/06/08 04:08:35;;;;;;;18.55;11.65;;;;;;;12.61;68.88;99166.88;2192952;81;20904;-80
2021/06/08 04:11:36;;;;;;;21.57;12.00;;;;;;;12.90;68.49;99162.30;2192988;81;20896;-80
2021/06/08 04:14:37;;;;;;;34.08;11.45;;;;;;;13.20;68.19;99170.45;2192635;80;21066;-80
2021/06/08 04:17:38;;;;;;;12.43;10.75;;;;;;;13.53;67.85;99165.83;2193576;81;20970;-80
2021/06/08 04:20:39;;;;;;;27.32;12.43;;;;;;;13.86;67.92;99166.41;2193220;81;21280;-80
2021/06/08 04:23:40;;;;;;;22.60;12.82;;;;;;;14.15;67.48;99161.28;2192266;81;20939;-79
2021/06/08 04:26:41;;;;;;;22.42;12.20;;;;;;;14.48;67.15;99159.19;2193020;81;20971;-80
2021/06/08 04:29:45;;;;;;;13.90;11.43;;;;;;;14.74;66.82;99160.55;2192721;81;20980;-80
2021/06/08 04:32:46;;;;;;;16.70;11.55;;;;;;;14.93;66.72;99158.80;2193270;81;20979;-81
2021/06/08 04:35:47;;;;;;;23.45;12.35;;;;;;;15.18;66.43;99156.58;2193104;81;20987;-78
2021/06/08 04:38:48;;;;;;;18.48;11.93;;;;;;;15.49;66.27;99156.50;2193314;81;20947;-80
2021/06/08 04:41:49;;;;;;;19.25;12.98;;;;;;;15.72;66.05;99156.05;2193315;81;20947;-80
2021/06/08 04:44:50;;;;;;;133.87;17.85;;;;;;;16.02;65.83;99148.89;2180781;81;20977;-80
2021/06/08 04:47:51;;;;;;;47.20;14.85;;;;;;;16.26;64.91;99150.07;2170583;82;21272;-81
2021/06/08 04:50:52;;;;;;;36.23;11.75;;;;;;;16.51;64.65;99149.50;2170374;82;20928;-82
2021/06/08 04:53:53;;;;;;;19.45;11.38;;;;;;;16.88;64.51;99141.76;2170437;82;20932;-82
2021/06/08 04:56:54;;;;;;;25.00;13.08;;;;;;;17.57;64.32;99146.81;2170568;82;20960;-84
2021/06/08 04:59:55;;;;;;;20.62;11.55;;;;;;;17.83;63.45;99143.45;2170775;82;20960;-82
2021/06/08 05:02:56;;;;;;;23.60;12.82;;;;;;;18.05;63.27;99140.08;2171000;82;20956;-80
2021/06/08 05:05:57;;;;;;;34.75;16.15;;;;;;;18.25;62.12;99141.16;2171593;82;20968;-80
2021/06/08 05:08:58;;;;;;;17.80;13.25;;;;;;;18.54;60.98;99144.68;2170951;82;20988;-82
2021/06/08 05:11:59;;;;;;;24.43;13.35;;;;;;;18.78;59.65;99148.29;2170762;82;21007;-79
2021/06/08 05:15:00;;;;;;;24.98;13.65;;;;;;;19.03;58.55;99145.65;2170462;81;21039;-76
2021/06/08 05:18:01;;;;;;;20.82;12.53;;;;;;;19.35;57.96;99146.87;2169538;82;20939;-78
2021/06/08 05:21:02;;;;;;;21.70;12.50;;;;;;;19.85;58.93;99142.38;2169791;82;21003;-78
2021/06/08 05:24:04;;;;;;;24.23;11.55;;;;;;;20.33;55.48;99142.67;2169706;82;20932;-80
2021/06/08 05:27:04;;;;;;;21.07;12.35;;;;;;;20.73;55.82;99136.91;2169576;82;21348;-77
2021/06/08 05:30:05;;;;;;;14.45;11.75;;;;;;;21.09;51.68;99145.76;2169648;82;21281;-77
2021/06/08 05:33:08;;;;;;;20.02;12.15;;;;;;;20.71;50.41;99149.34;2169336;81;21334;-79
2021/06/08 05:36:10;;;;;;;18.55;13.13;;;;;;;20.59;50.98;99145.20;2169721;82;21049;-80
2021/06/08 05:39:11;;;;;;;17.40;11.25;;;;;;;20.83;51.58;99145.97;2169691;82;20932;-78
2021/06/08 05:42:12;;;;;;;19.92;11.18;;;;;;;20.85;50.50;99147.25;2169433;82;21091;-77
2021/06/08 05:45:12;;;;;;;17.35;10.28;;;;;;;20.84;50.47;99146.38;2169167;81;21003;-76
2021/06/08 05:48:13;;;;;;;10.93;8.43;;;;;;;21.01;50.31;99144.62;2169543;82;20933;-80
2021/06/08 05:51:14;;;;;;;13.30;8.68;;;;;;;21.57;49.01;99142.27;2169580;82;20929;-77
2021/06/08 05:54:15;;;;;;;10.70;9.68;;;;;;;21.83;47.58;99140.23;2169821;82;21359;-77
2021/06/08 05:57:16;;;;;;;13.35;11.08;;;;;;;21.65;47.49;99140.73;2169303;82;20940;-77
2021/06/08 06:00:17;;;;;;;9.65;8.65;;;;;;;21.81;47.72;99141.61;2170070;82;20963;-76
2021/06/08 06:03:18;;;;;;;50.55;11.20;;;;;;;21.79;46.36;99147.89;2169248;82;20967;-79
2021/06/08 06:06:19;;;;;;;10.30;8.03;;;;;;;21.83;46.67;99144.23;2169607;82;20940;-77
2021/06/08 06:09:23;;;;;;;10.75;7.95;;;;;;;21.80;46.86;99142.98;2169338;81;20941;-78
2021/06/08 06:12:22;;;;;;;10.03;7.87;;;;;;;21.83;45.59;99141.57;2169090;82;20944;-77
2021/06/08 06:15:23;;;;;;;10.53;7.47;;;;;;;22.04;45.64;99147.62;2168738;81;20995;-77
2021/06/08 06:18:24;;;;;;;12.43;7.33;;;;;;;22.22;46.30;99140.41;2169367;81;20968;-76
2021/06/08 06:21:26;;;;;;;8.15;6.90;;;;;;;22.60;44.22;99138.38;2169504;82;20964;-76
2021/06/08 06:24:28;;;;;;;12.07;7.05;;;;;;;22.70;44.50;99138.48;2169381;81;20915;-77
2021/06/08 06:27:30;;;;;;;11.30;7.72;;;;;;;22.73;42.32;99140.17;2169257;82;20969;-77
2021/06/08 06:30:31;;;;;;;15.63;8.30;;;;;;;22.91;42.60;99138.73;2169111;82;20936;-78
2021/06/08 06:33:32;;;;;;;14.80;8.93;;;;;;;22.96;43.01;99136.33;2169612;82;20916;-78
2021/06/08 06:36:33;;;;;;;70.95;58.00;;;;;;;23.13;43.04;99139.28;2169821;81;20919;-78
2021/06/08 06:39:34;;;;;;;13.72;11.40;;;;;;;23.16;42.04;99134.31;2169468;82;20933;-79
2021/06/08 06:42:35;;;;;;;12.55;7.30;;;;;;;23.41;41.88;99136.56;2169332;82;20960;-77
2021/06/08 06:45:36;;;;;;;12.88;8.15;;;;;;;23.53;39.83;99134.38;2183000;81;21038;-76
2021/06/08 06:48:37;;;;;;;7.87;7.08;;;;;;;23.80;40.73;99127.61;2192040;81;20940;-77
2021/06/08 06:51:38;;;;;;;9.23;7.47;;;;;;;23.73;39.49;99128.77;2192988;81;20936;-77
2021/06/08 06:54:39;;;;;;;11.57;6.55;;;;;;;23.73;40.60;99131.42;2192044;81;20939;-77
2021/06/08 06:57:39;;;;;;;7.10;5.67;;;;;;;24.01;39.73;99123.72;2192231;81;20946;-76
2021/06/08 07:00:40;;;;;;;10.50;5.70;;;;;;;24.19;39.44;99128.81;2192402;81;20923;-77
2021/06/08 07:03:41;;;;;;;7.12;5.12;;;;;;;24.36;39.83;99123.28;2191797;81;20939;-77
2021/06/08 07:06:42;;;;;;;12.18;5.58;;;;;;;24.85;37.90;99121.75;2192089;81;20916;-77
2021/06/08 07:09:43;;;;;;;9.38;5.15;;;;;;;24.71;36.37;99123.66;2191860;81;20936;-77
2021/06/08 07:12:44;;;;;;;11.43;5.00;;;;;;;24.76;37.82;99127.01;2191412;81;21472;-76
2021/06/08 07:15:46;;;;;;;8.20;4.97;;;;;;;25.10;36.19;99123.83;2191695;81;21023;-75
2021/06/08 07:18:47;;;;;;;7.60;4.40;;;;;;;25.10;36.94;99122.48;2191591;81;21030;-74
2021/06/08 07:21:48;;;;;;;5.10;4.60;;;;;;;25.18;35.60;99121.73;2191726;81;21042;-78
2021/06/08 07:24:49;;;;;;;9.90;4.72;;;;;;;25.07;34.83;99126.63;2191532;81;21050;-78
2021/06/08 07:27:50;;;;;;;8.43;4.70;;;;;;;25.02;35.13;99121.95;2192115;81;21430;-79
2021/06/08 07:30:51;;;;;;;11.12;5.03;;;;;;;25.38;36.52;99125.73;2191902;81;20954;-77
2021/06/08 07:33:54;;;;;;;5.73;4.90;;;;;;;25.89;35.68;99127.03;2170097;81;20911;-78
2021/06/08 07:36:55;;;;;;;5.97;4.00;;;;;;;26.00;36.47;99125.20;2192037;81;21016;-77
2021/06/08 07:39:56;;;;;;;7.20;4.60;;;;;;;26.11;34.24;99132.29;2192150;81;21188;-77
2021/06/08 07:42:57;;;;;;;5.75;4.25;;;;;;;26.08;35.30;99130.23;2191894;81;20979;-77
2021/06/08 07:45:58;;;;;;;10.30;4.50;;;;;;;26.08;32.74;99128.89;2192071;80;21006;-79
2021/06/08 07:49:00;;;;;;;18.15;12.98;;;;;;;25.90;32.61;99126.09;2193061;81;20980;-76
2021/06/08 07:55:03;;;;;;;4.90;4.50;;;;;;;26.02;34.98;99130.91;2170895;81;21408;-77
2021/06/08 07:58:04;;;;;;;6.25;4.67;;;;;;;26.26;33.90;99127.55;2191915;81;21284;-77
2021/06/08 08:01:05;;;;;;;6.22;4.80;;;;;;;26.13;33.54;99129.55;2191955;81;20991;-78
2021/06/08 08:04:09;;;;;;;5.70;4.70;;;;;;;26.01;33.50;99129.17;2191951;81;20939;-77
2021/06/08 08:07:09;;;;;;;15.70;5.50;;;;;;;26.16;34.41;99129.40;2192077;81;20980;-78
2021/06/08 08:10:10;;;;;;;4.20;3.90;;;;;;;26.40;33.84;99120.70;2192118;81;20931;-78
2021/06/08 08:13:11;;;;;;;9.33;3.98;;;;;;;26.25;30.81;99124.48;2192092;81;20928;-78
2021/06/08 08:16:12;;;;;;;8.50;4.08;;;;;;;25.96;30.77;99121.80;2191902;80;21051;-77
2021/06/08 08:19:13;;;;;;;10.48;5.83;;;;;;;26.01;32.31;99119.81;2191994;81;20903;-77
2021/06/08 08:22:14;;;;;;;8.98;4.30;;;;;;;26.33;32.53;99121.47;2191908;81;21363;-78
2021/06/08 08:25:15;;;;;;;8.53;4.12;;;;;;;26.44;31.98;99123.63;2191931;81;21003;-77
2021/06/08 08:28:17;;;;;;;8.83;4.00;;;;;;;26.29;32.51;99131.89;2192041;81;20951;-77
2021/06/08 08:31:18;;;;;;;7.33;4.33;;;;;;;26.17;31.73;99131.13;2191940;81;20931;-77
2021/06/08 08:34:19;;;;;;;4.80;4.15;;;;;;;26.01;32.24;99121.15;2191882;81;21023;-77
2021/06/08 08:37:19;;;;;;;13.05;5.30;;;;;;;26.08;32.84;99120.39;2192079;81;20958;-76
2021/06/08 08:40:22;;;;;;;9.63;4.90;;;;;;;26.08;33.31;99123.07;2191991;81;21043;-77
2021/06/08 08:43:28;;;;;;;18.10;5.85;;;;;;;26.07;33.61;99120.47;2191956;81;21000;-77
2021/06/08 08:46:29;;;;;;;15.72;5.22;;;;;;;26.16;33.75;99122.71;2174637;81;21067;-77
2021/06/08 08:49:30;;;;;;;6.55;4.62;;;;;;;26.03;33.40;99124.63;2169448;82;20979;-77
2021/06/08 08:52:31;;;;;;;8.95;7.08;;;;;;;26.03;34.50;99124.63;2169592;82;20973;-78
2021/06/08 08:55:35;;;;;;;8.78;5.10;;;;;;;26.05;34.59;99116.53;2169442;82;20913;-77
2021/06/08 08:58:36;;;;;;;9.83;4.92;;;;;;;26.15;33.87;99110.27;2169269;82;20940;-76
2021/06/08 09:01:39;;;;;;;6.75;5.37;;;;;;;26.28;34.43;99124.34;2169375;82;20964;-77
2021/06/08 09:04:40;;;;;;;;;;;;;;;26.23;34.61;99126.36;2171624;82;20943;-78
2021/06/08 09:07:41;;;;;;;7.05;5.10;;;;;;;26.11;33.58;99118.91;2169677;82;20094;-78
2021/06/08 09:10:49;;;;;;;7.25;4.40;;;;;;;26.05;32.87;99124.55;2169703;82;21040;-76
2021/06/08 09:13:50;;;;;;;8.85;4.83;;;;;;;26.07;33.24;99124.01;2168839;81;21307;-76
2021/06/08 09:16:51;;;;;;;8.38;4.67;;;;;;;26.37;34.00;99131.09;2169305;82;21356;-78
2021/06/08 09:19:52;;;;;;;9.18;5.40;;;;;;;26.41;32.34;99123.78;2169520;82;20972;-77
2021/06/08 09:22:54;;;;;;;12.47;5.12;;;;;;;26.32;33.02;99114.35;2169541;82;21339;-77
2021/06/08 09:25:56;;;;;;;10.95;5.00;;;;;;;26.30;33.82;99114.42;2169891;81;20908;-77
2021/06/08 09:28:57;;;;;;;8.38;4.45;;;;;;;26.10;33.42;99119.85;2169953;82;21299;-78
2021/06/08 09:31:58;;;;;;;6.00;4.17;;;;;;;26.19;34.31;99112.73;2169587;82;20897;-76
2021/06/08 09:34:59;;;;;;;4.12;3.80;;;;;;;26.43;32.49;99115.20;2170317;81;21343;-78
2021/06/08 09:38:00;;;;;;;4.28;3.87;;;;;;;26.52;32.39;99116.09;2170621;82;20964;-78
2021/06/08 09:41:01;;;;;;;6.53;4.20;;;;;;;26.59;30.63;99102.34;2169940;81;21363;-76
2021/06/08 09:44:02;;;;;;;8.60;4.58;;;;;;;26.43;31.75;99116.08;2169607;81;20963;-78
2021/06/08 09:47:03;;;;;;;6.20;3.95;;;;;;;26.33;31.88;99112.11;2188924;81;21371;-77
2021/06/08 09:50:04;;;;;;;9.55;4.10;;;;;;;25.84;30.33;99109.00;2192538;81;20979;-78
2021/06/08 09:53:05;;;;;;;7.15;4.25;;;;;;;25.55;32.11;99108.95;2192294;81;21267;-77
2021/06/08 09:56:07;;;;;;;6.97;3.90;;;;;;;25.79;31.88;99119.50;2192197;81;21118;-76
2021/06/08 09:59:08;;;;;;;4.92;3.85;;;;;;;26.11;31.51;99112.70;2191799;81;20979;-77
2021/06/08 10:02:09;;;;;;;8.65;4.15;;;;;;;26.25;31.18;99116.45;2192236;81;21451;-77
2021/06/08 10:05:10;;;;;;;7.55;3.85;;;;;;;26.48;31.35;99099.79;2170073;81;21288;-77
2021/06/08 10:08:10;;;;;;;5.17;3.55;;;;;;;26.11;30.66;99109.55;2192228;81;20971;-77
2021/06/08 10:11:11;;;;;;;39.18;6.20;;;;;;;26.11;30.90;99103.33;2192395;81;20904;-79
2021/06/08 10:14:12;;;;;;;9.20;4.08;;;;;;;26.18;30.14;99119.02;2192140;80;20971;-76
2021/06/08 10:17:13;;;;;;;4.90;3.52;;;;;;;26.12;30.88;99109.08;2192135;81;20921;-77
2021/06/08 10:20:14;;;;;;;13.20;4.17;;;;;;;26.39;31.08;99104.25;2192124;81;21015;-77
2021/06/08 10:23:16;;;;;;;4.03;3.67;;;;;;;26.31;31.69;99112.14;2192556;81;20896;-79
2021/06/08 10:26:17;;;;;;;6.83;4.08;;;;;;;26.15;29.79;99108.94;2192267;81;20947;-76
2021/06/08 10:29:18;;;;;;;13.70;4.97;;;;;;;26.41;29.58;99089.85;2191931;81;20962;-77
2021/06/08 10:32:19;;;;;;;8.00;4.50;;;;;;;26.81;31.01;99097.25;2192174;81;20963;-78
2021/06/08 10:35:20;;;;;;;6.37;4.75;;;;;;;27.04;30.08;99087.64;2191962;81;21253;-76
2021/06/08 10:38:21;;;;;;;4.62;4.10;;;;;;;27.14;30.24;99083.55;2192369;81;21006;-78
2021/06/08 10:41:22;;;;;;;4.50;3.75;;;;;;;27.44;30.25;99090.92;2192631;81;20959;-78
2021/06/08 10:44:23;;;;;;;4.22;3.70;;;;;;;27.62;29.10;99096.67;2192191;79;20963;-77
2021/06/08 10:47:34;;;;;;;4.12;3.72;;;;;;;27.67;28.74;99095.09;2191634;81;21022;-77
2021/06/08 10:50:27;;;;;;;6.17;4.87;;;;;;;27.88;29.07;99084.56;2190538;81;21011;-76
2021/06/08 10:53:33;;;;;;;13.15;4.65;;;;;;;28.10;28.92;99073.51;2192023;81;20993;-77
2021/06/08 10:56:34;;;;;;;6.80;3.83;;;;;;;28.15;27.57;99084.85;2192329;81;20971;-77
2021/06/08 10:59:35;;;;;;;15.65;4.83;;;;;;;27.70;27.90;99088.22;2192243;81;20940;-77
2021/06/08 11:02:36;;;;;;;5.75;4.50;;;;;;;27.05;28.43;99086.70;2192442;81;20998;-78
2021/06/08 11:05:37;;;;;;;7.35;4.15;;;;;;;26.74;29.91;99086.45;2192641;81;21050;-77
2021/06/08 11:08:38;;;;;;;6.53;4.47;;;;;;;26.82;30.15;99084.26;2192480;81;20951;-79
2021/06/08 11:11:39;;;;;;;4.47;3.60;;;;;;;26.66;30.21;99092.19;2192368;81;20988;-77
2021/06/08 11:14:43;;;;;;;4.85;4.40;;;;;;;26.27;29.67;99086.47;2192164;81;21018;-77
2021/06/08 11:17:43;;;;;;;6.53;3.90;;;;;;;26.42;30.08;99082.69;2192312;81;21043;-77
2021/06/08 11:20:43;;;;;;;9.23;3.77;;;;;;;26.62;29.27;99086.13;2192628;81;21997;-77
2021/06/08 11:23:45;;;;;;;5.83;3.90;;;;;;;26.76;29.56;99083.23;2192417;81;20984;-79
2021/06/08 11:26:49;;;;;;;6.17;3.95;;;;;;;26.55;29.10;99082.02;2192489;81;20908;-78
2021/06/08 11:29:53;;;;;;;6.62;5.85;;;;;;;26.53;29.62;99075.87;2192208;81;20958;-80
2021/06/08 11:32:54;;;;;;;3.83;3.47;;;;;;;26.83;29.36;99068.58;2192446;81;21070;-79
2021/06/08 11:35:55;;;;;;;4.05;3.58;;;;;;;27.06;28.97;99069.67;2192282;81;21308;-76
2021/06/08 11:38:56;;;;;;;5.37;3.55;;;;;;;27.02;27.10;99073.46;2192269;81;21304;-78
2021/06/08 11:41:57;;;;;;;5.08;3.58;;;;;;;27.10;27.81;99061.88;2192087;81;20928;-78
2021/06/08 11:44:58;;;;;;;6.47;3.42;;;;;;;27.19;27.50;99054.69;2192190;80;21414;-77
2021/06/08 11:47:59;;;;;;;6.12;3.37;;;;;;;27.44;26.78;99053.39;2191808;81;21059;-76
2021/06/08 11:51:00;;;;;;;5.58;3.00;;;;;;;27.56;26.56;99060.77;2192286;81;21307;-77
2021/06/08 11:54:01;;;;;;;3.52;3.12;;;;;;;27.65;25.81;99051.40;2192445;81;21300;-77
2021/06/08 11:57:02;;;;;;;5.85;2.92;;;;;;;27.64;25.22;99045.17;2192463;81;21303;-77
2021/06/08 12:00:03;;;;;;;4.65;3.08;;;;;;;27.32;25.38;99060.27;2192615;81;20936;-79
2021/06/08 12:03:03;;;;;;;5.95;3.30;;;;;;;26.80;26.13;99052.67;2192284;81;20935;-76
2021/06/08 12:06:04;;;;;;;9.75;3.58;;;;;;;26.72;26.12;99045.50;2192307;81;20947;-77
2021/06/08 12:09:05;;;;;;;6.15;3.92;;;;;;;26.99;26.57;99034.77;2192114;81;20958;-79
2021/06/08 12:12:06;;;;;;;3.67;2.60;;;;;;;27.16;25.62;99037.91;2192514;81;20879;-79
2021/06/08 12:15:08;;;;;;;4.95;2.98;;;;;;;27.39;25.35;99032.19;2191856;80;21086;-78
2021/06/08 12:18:09;;;;;;;5.10;2.70;;;;;;;27.38;24.58;99035.82;2192421;81;21018;-79
2021/06/08 12:21:10;;;;;;;7.92;2.62;;;;;;;27.46;24.73;99039.43;2192470;81;21031;-79
2021/06/08 12:24:12;;;;;;;2.50;2.30;;;;;;;27.44;23.54;99029.27;2192364;81;21019;-80
2021/06/08 12:27:13;;;;;;;8.50;3.08;;;;;;;27.22;23.87;99043.81;2192320;81;21031;-80
2021/06/08 12:30:14;;;;;;;3.67;2.60;;;;;;;27.14;22.94;99035.31;2192164;81;21039;-80
2021/06/08 12:33:15;;;;;;;5.15;2.75;;;;;;;27.25;23.84;99024.89;2192442;81;20943;-79
2021/06/08 12:36:16;;;;;;;3.00;2.80;;;;;;;27.27;23.08;99028.83;2191532;81;21418;-78
2021/06/08 12:39:17;;;;;;;3.00;2.70;;;;;;;27.23;22.80;99020.56;2192172;81;20979;-77
2021/06/08 12:42:19;;;;;;;3.27;2.70;;;;;;;27.28;23.17;99022.52;2192592;81;21027;-78
2021/06/08 12:45:20;;;;;;;5.50;2.60;;;;;;;27.34;24.18;99012.81;2191943;80;21106;-79
2021/06/08 12:48:21;;;;;;;5.42;2.77;;;;;;;27.47;24.81;99015.70;2192199;81;20967;-77
2021/06/08 12:51:22;;;;;;;4.70;2.65;;;;;;;27.47;23.43;99017.04;2192036;81;20931;-78
2021/06/08 12:54:23;;;;;;;4.42;2.85;;;;;;;27.54;24.50;99026.00;2192400;81;21359;-80
2021/06/08 12:57:24;;;;;;;3.80;2.90;;;;;;;27.64;25.13;99021.04;2192498;81;20939;-79
2021/06/08 13:00:25;;;;;;;3.08;2.70;;;;;;;27.75;24.09;99019.14;2193033;81;21024;-80
2021/06/08 13:03:26;;;;;;;2.92;2.62;;;;;;;27.74;23.51;99020.92;2192650;81;21300;-78
2021/06/08 13:06:27;;;;;;;32.35;17.98;;;;;;;27.78;23.74;99007.77;2192780;81;20975;-80
2021/06/08 13:09:28;;;;;;;4.30;3.00;;;;;;;27.83;24.12;99011.05;2192601;81;21299;-80
2021/06/08 13:12:29;;;;;;;5.30;3.95;;;;;;;28.02;25.13;99026.12;2192848;81;21283;-80
2021/06/08 13:15:30;;;;;;;8.63;2.67;;;;;;;28.02;23.91;99012.70;2193108;80;21399;-80
2021/06/08 13:18:31;;;;;;;5.33;2.90;;;;;;;27.95;24.10;99017.55;2192748;81;21031;-80
2021/06/08 13:21:32;;;;;;;5.12;2.80;;;;;;;27.72;25.38;99018.80;2192942;81;20983;-80
2021/06/08 13:24:33;;;;;;;3.60;2.62;;;;;;;27.43;25.60;99020.83;2192666;81;20935;-80
2021/06/08 13:27:34;;;;;;;4.05;3.27;;;;;;;27.44;26.38;99017.20;2192788;81;20963;-79
2021/06/08 13:30:35;;;;;;;4.10;2.90;;;;;;;27.34;26.19;99011.95;2192865;81;21003;-79
2021/06/08 13:33:37;;;;;;;5.25;3.20;;;;;;;27.45;27.07;99010.89;2193072;81;21313;-79
2021/06/08 13:36:40;;;;;;;3.40;3.10;;;;;;;27.46;25.71;99009.47;2192690;81;21375;-79
2021/06/08 13:39:41;;;;;;;7.87;3.10;;;;;;;27.47;25.85;99004.50;2192655;81;20912;-79
2021/06/08 13:42:42;;;;;;;4.00;3.00;;;;;;;27.48;25.57;99022.79;2193048;81;21051;-80
2021/06/08 13:45:45;;;;;;;3.75;2.72;;;;;;;27.46;25.71;99004.58;2191169;80;21090;-79
2021/06/08 13:48:47;;;;;;;6.45;3.05;;;;;;;27.37;25.59;99001.06;2169748;82;20932;-80
2021/06/08 13:51:48;;;;;;;9.20;2.62;;;;;;;27.27;25.73;99003.37;2169714;82;21379;-80
2021/06/08 13:54:49;;;;;;;5.85;3.12;;;;;;;27.22;27.06;99022.38;2169453;82;21360;-78
2021/06/08 14:00:17;;;;;;;5.15;3.37;;;;;;;27.16;26.67;99014.66;2169456;82;20921;-80
2021/06/08 14:00:53;;;;;;;4.17;2.70;;;;;;;27.15;27.13;99000.00;2165780;82;21188;-79
2021/06/08 14:03:54;;;;;;;3.22;2.75;;;;;;;27.27;26.78;98995.33;2169552;82;20976;-79
2021/06/08 14:06:56;;;;;;;4.42;2.70;;;;;;;27.31;26.47;98998.71;2169396;82;20980;-81